Lobo

Go HERE for most recent data if this page is not up to date.

Jump to table bottom
Date/Time Temp deg F RH % 24 Hr Snow (in) Snow Depth (in) H2O (in)
05/29 21:00 31.2 100 "NAN" 36.3 0.00
05/29 20:00 32.0 100 "NAN" 36.3 0.01
05/29 19:00 31.3 100 "NAN" 36.2 0.08
05/29 18:00 32.4 97 "NAN" 34.2 0.08
05/29 17:00 32.6 100 "NAN" 33.6 0.07
05/29 16:00 32.3 100 "NAN" 32.8 0.19
05/29 15:00 34.4 100 "NAN" 32.4 0.03
05/29 14:00 34.9 100 "NAN" 32.6 0.13
05/29 13:00 37.4 78 "NAN" 32.5 0.04
05/29 12:00 38.4 81 "NAN" 32.6 0.02
05/29 11:00 37.6 74 "NAN" 32.6 0.05
05/29 10:00 37.9 85 "NAN" 32.6 0.07
05/29 09:00 37.9 83 "NAN" 32.5 0.05
05/29 08:00 39.8 94 "NAN" 32.4 0.02
05/29 07:00 40.4 84 "NAN" 32.3 0.00
05/29 06:00 43.4 66 "NAN" 32.5 0.00
05/29 05:00 45.1 56 "NAN" 32.5 0.00
05/29 04:00 46.0 52 "NAN" 32.5 0.00
05/29 03:00 46.7 51 "NAN" 32.5 0.00
05/29 02:00 46.1 46 "NAN" 32.8 0.00
05/29 01:00 44.8 56 "NAN" 32.6 0.00
05/29 00:00 45.3 58 "NAN" 32.6 0.00
05/28 23:00 45.6 56 "NAN" 32.7 0.00
05/28 22:00 47.9 68 "NAN" 32.7 0.00
05/28 21:00 52.0 34 "NAN" 32.7 0.00
05/28 20:00 53.1 33 "NAN" 32.7 0.00
05/28 19:00 53.1 32 "NAN" 32.9 0.00
05/28 18:00 55.9 31 "NAN" 33.0 0.00
05/28 17:00 57.4 24 "NAN" 33.2 0.00
05/28 16:00 58.7 21 "NAN" 33.6 0.00
05/28 15:00 58.9 21 "NAN" 34.1 0.00
05/28 14:00 57.9 25 "NAN" 34.2 0.00
05/28 13:00 57.2 24 "NAN" 34.6 0.00
05/28 12:00 56.0 30 "NAN" 34.6 0.00
05/28 11:00 52.4 32 "NAN" 35.2 0.00
05/28 10:00 49.6 41 "NAN" 35.1 0.00
05/28 09:00 46.8 41 "NAN" 35.3 0.00
05/28 08:00 44.8 45 "NAN" 35.3 0.00
05/28 07:00 43.7 47 "NAN" 35.4 0.00
05/28 06:00 43.0 46 "NAN" 35.3 0.00
05/28 05:00 42.7 48 "NAN" 35.4 0.00
05/28 04:00 42.5 45 "NAN" 35.3 0.00
05/28 03:00 41.3 50 "NAN" 35.3 0.00
05/28 02:00 41.5 48 "NAN" 35.3 0.00
05/28 01:00 43.0 50 "NAN" 35.4 0.00
05/28 00:00 43.4 47 "NAN" 35.3 0.00
.